createdAt,value
2018-01-19T00:01:40.532Z,7.00
2018-01-19T00:04:08.758Z,9.43
2018-01-19T00:06:37.907Z,5.90
2018-01-19T00:09:05.356Z,8.67
2018-01-19T00:11:33.148Z,5.27
2018-01-19T00:14:01.369Z,7.23
2018-01-19T00:16:28.809Z,10.30
2018-01-19T00:18:57.024Z,7.37
2018-01-19T00:21:26.136Z,8.20
2018-01-19T00:23:53.583Z,6.50
2018-01-19T00:26:21.074Z,6.97
2018-01-19T00:28:48.532Z,6.77
2018-01-19T00:31:16.841Z,8.07
2018-01-19T00:33:45.106Z,6.00
2018-01-19T00:36:12.594Z,7.00
2018-01-19T00:38:40.053Z,6.63
2018-01-19T00:41:07.497Z,4.70
2018-01-19T00:43:34.940Z,4.37
2018-01-19T00:46:03.229Z,11.17
2018-01-19T00:48:31.433Z,5.30
2018-01-19T00:50:59.768Z,6.43
2018-01-19T00:53:27.217Z,3.13
2018-01-19T00:55:54.653Z,4.80
2018-01-19T00:58:22.154Z,4.43
2018-01-19T01:00:49.609Z,5.27
2018-01-19T01:03:17.066Z,6.20
2018-01-19T01:05:44.569Z,10.27
2018-01-19T01:08:12.013Z,10.53
2018-01-19T01:10:39.473Z,15.07
2018-01-19T01:13:06.917Z,10.23
2018-01-19T01:15:34.384Z,20.77
2018-01-19T01:18:01.829Z,6.30
2018-01-19T01:20:29.781Z,8.00
2018-01-19T01:22:57.221Z,3.90
2018-01-19T01:25:25.438Z,6.70
2018-01-19T01:27:52.893Z,6.40
2018-01-19T01:30:20.335Z,4.87
2018-01-19T01:32:48.556Z,9.37
2018-01-19T01:35:16.027Z,14.77
2018-01-19T01:37:43.471Z,3.83
2018-01-19T01:40:11.048Z,7.70
2018-01-19T01:42:38.490Z,9.43
2018-01-19T01:45:05.997Z,7.37
2018-01-19T01:47:33.458Z,2.80
2018-01-19T01:50:00.901Z,3.70
2018-01-19T01:52:29.116Z,3.03
2018-01-19T01:54:56.566Z,12.10
2018-01-19T01:57:24.048Z,3.50
2018-01-19T01:59:51.498Z,5.20
2018-01-19T02:02:18.951Z,3.43
2018-01-19T02:04:46.389Z,6.37
2018-01-19T02:07:13.841Z,7.10
2018-01-19T02:09:41.291Z,4.53
2018-01-19T02:12:08.729Z,5.97
2018-01-19T02:14:37.015Z,6.33
2018-01-19T02:17:04.467Z,8.87
2018-01-19T02:19:32.678Z,11.87
2018-01-19T02:22:00.144Z,10.03
2018-01-19T02:24:27.586Z,3.23
2018-01-19T02:26:55.032Z,8.20
2018-01-19T02:29:22.481Z,7.10
2018-01-19T02:31:50.718Z,4.93
2018-01-19T02:34:18.153Z,7.80
2018-01-19T02:36:45.617Z,4.47
2018-01-19T02:39:13.069Z,5.00
2018-01-19T02:41:40.513Z,7.57
2018-01-19T02:44:07.970Z,6.10
2018-01-19T02:46:35.418Z,4.90
2018-01-19T02:49:02.875Z,5.40
2018-01-19T02:51:30.326Z,4.53
2018-01-19T02:53:58.546Z,6.70
2018-01-19T02:56:26.009Z,4.93
2018-01-19T02:58:53.467Z,4.67
2018-01-19T03:01:20.905Z,8.23
2018-01-19T03:03:48.364Z,5.80
2018-01-19T03:06:15.820Z,7.23
2018-01-19T03:08:43.277Z,12.40
2018-01-19T03:11:10.730Z,10.23
2018-01-19T03:13:38.185Z,13.87
2018-01-19T03:16:05.632Z,8.70
2018-01-19T03:18:33.077Z,9.00
2018-01-19T03:21:00.513Z,8.03
2018-01-19T03:23:27.970Z,6.13
2018-01-19T03:25:55.421Z,9.83
2018-01-19T03:28:22.878Z,9.30
2018-01-19T03:30:50.330Z,8.43
2018-01-19T03:33:18.542Z,16.20
2018-01-19T03:35:45.997Z,14.83
2018-01-19T03:38:13.433Z,7.57
2018-01-19T03:40:40.901Z,5.90
2018-01-19T03:43:08.350Z,9.93
2018-01-19T03:45:35.797Z,11.57
2018-01-19T03:48:03.241Z,10.20
2018-01-19T03:50:31.459Z,13.33
2018-01-19T03:52:58.908Z,11.00
2018-01-19T03:55:26.373Z,12.67
2018-01-19T03:57:53.822Z,9.80
2018-01-19T04:00:21.301Z,13.33
2018-01-19T04:02:48.745Z,13.70
2018-01-19T04:05:16.201Z,12.07
2018-01-19T04:07:43.651Z,18.60
2018-01-19T04:10:11.118Z,10.70
2018-01-19T04:12:38.573Z,9.60
2018-01-19T04:15:06.801Z,11.43
2018-01-19T04:17:34.246Z,13.77
2018-01-19T04:22:53.200Z,11.00
2018-01-19T04:25:20.653Z,17.53
2018-01-19T04:27:48.098Z,18.20
2018-01-19T04:30:15.568Z,14.63
2018-01-19T04:32:43.021Z,28.47
2018-01-19T04:35:10.482Z,21.13
2018-01-19T04:37:37.944Z,11.27
2018-01-19T04:40:05.387Z,17.97
2018-01-19T04:42:32.861Z,14.40
2018-01-19T04:45:00.313Z,22.07
2018-01-19T04:47:27.770Z,14.43
2018-01-19T04:49:55.220Z,17.83
2018-01-19T04:52:23.441Z,21.20
2018-01-19T04:54:51.661Z,24.03
2018-01-19T04:57:19.117Z,14.83
2018-01-19T04:59:46.570Z,20.00
2018-01-19T05:02:14.025Z,22.07
2018-01-19T05:04:42.237Z,22.20
2018-01-19T05:07:09.697Z,15.60
2018-01-19T05:09:37.156Z,16.60
2018-01-19T05:12:04.608Z,17.20
2018-01-19T05:14:32.056Z,19.40
2018-01-19T05:16:59.520Z,22.20
2018-01-19T05:19:26.969Z,18.20
2018-01-19T05:21:54.435Z,17.23
2018-01-19T05:24:21.893Z,22.17
2018-01-19T05:26:49.365Z,20.60
2018-01-19T05:29:16.808Z,20.63
2018-01-19T05:31:44.259Z,15.30
2018-01-19T05:34:12.478Z,28.30
2018-01-19T05:36:40.702Z,20.77
2018-01-19T05:39:08.156Z,22.27
2018-01-19T05:41:35.613Z,22.93
2018-01-19T05:44:03.086Z,22.10
2018-01-19T05:46:30.538Z,20.23
2018-01-19T05:48:57.993Z,24.67
2018-01-19T05:51:25.441Z,22.40
2018-01-19T05:53:52.937Z,26.13
2018-01-19T05:56:20.404Z,22.13
2018-01-19T05:58:47.858Z,20.17
2018-01-19T06:01:15.305Z,25.37
2018-01-19T06:03:43.554Z,19.90
2018-01-19T06:06:11.009Z,21.40
2018-01-19T06:08:38.469Z,22.43
2018-01-19T06:11:05.921Z,29.00
2018-01-19T06:13:34.143Z,26.07
2018-01-19T06:16:02.363Z,26.80
2018-01-19T06:18:29.837Z,25.90
2018-01-19T06:20:57.289Z,27.07
2018-01-19T06:23:24.750Z,22.90
2018-01-19T06:25:52.224Z,24.07
2018-01-19T06:28:19.677Z,26.03
2018-01-19T06:30:47.891Z,25.70
2018-01-19T06:33:15.338Z,28.57
2018-01-19T06:35:42.793Z,33.87
2018-01-19T06:38:10.251Z,27.37
2018-01-19T06:40:37.709Z,23.13
2018-01-19T06:43:05.924Z,24.40
2018-01-19T06:45:33.393Z,25.90
2018-01-19T06:48:00.847Z,25.00
2018-01-19T06:50:28.715Z,30.10
2018-01-19T06:52:56.921Z,31.23
2018-01-19T06:55:24.386Z,25.63
2018-01-19T06:57:51.859Z,32.83
2018-01-19T07:00:19.298Z,32.67
2018-01-19T07:02:46.757Z,28.23
2018-01-19T07:05:14.213Z,33.70
2018-01-19T07:07:41.661Z,26.97
2018-01-19T07:10:09.117Z,30.13
2018-01-19T07:12:36.573Z,26.63
2018-01-19T07:15:04.047Z,25.70
2018-01-19T07:17:31.505Z,25.00
2018-01-19T07:19:59.725Z,30.37
2018-01-19T07:22:27.186Z,25.43
2018-01-19T07:24:54.645Z,28.30
2018-01-19T07:27:22.097Z,30.30
2018-01-19T07:29:49.555Z,29.10
2018-01-19T07:32:17.018Z,29.20
2018-01-19T07:34:44.474Z,27.87
2018-01-19T07:37:11.932Z,28.97
2018-01-19T07:39:39.386Z,30.17
2018-01-19T07:42:06.842Z,29.83
2018-01-19T07:44:35.056Z,31.17
2018-01-19T07:47:04.022Z,30.50
2018-01-19T07:49:31.474Z,34.03
2018-01-19T07:51:58.945Z,28.30
2018-01-19T07:54:27.158Z,30.97
2018-01-19T07:56:55.386Z,27.47
2018-01-19T07:59:22.859Z,28.63
2018-01-19T08:01:50.337Z,33.90
2018-01-19T08:04:17.785Z,28.40
2018-01-19T08:06:45.273Z,27.73
2018-01-19T08:09:12.730Z,31.63
2018-01-19T08:11:40.956Z,30.27
2018-01-19T08:14:08.405Z,29.07
2018-01-19T08:16:35.882Z,26.60
2018-01-19T08:19:03.346Z,28.03
2018-01-19T08:21:31.566Z,26.67
2018-01-19T08:23:59.020Z,30.20
2018-01-19T08:26:26.476Z,27.97
2018-01-19T08:28:54.692Z,30.30
2018-01-19T08:31:22.146Z,29.40
2018-01-19T08:33:49.600Z,30.13
2018-01-19T08:36:17.052Z,26.87
2018-01-19T08:38:44.529Z,27.60
2018-01-19T08:41:12.051Z,28.63
2018-01-19T08:43:39.531Z,33.13
2018-01-19T08:46:06.981Z,20.60
2018-01-19T08:48:34.449Z,24.93
2018-01-19T08:51:01.895Z,32.00
2018-01-19T08:53:29.350Z,18.00
2018-01-19T08:55:56.805Z,21.30
2018-01-19T08:58:25.033Z,22.53
2018-01-19T09:00:53.259Z,24.47
2018-01-19T09:03:20.713Z,23.23
2018-01-19T09:05:48.174Z,20.23
2018-01-19T09:08:15.643Z,20.50
2018-01-19T09:10:43.088Z,23.33
2018-01-19T09:13:10.555Z,17.53
2018-01-19T09:15:38.002Z,16.77
2018-01-19T09:18:05.471Z,18.50
2018-01-19T09:20:32.921Z,18.07
2018-01-19T09:23:00.378Z,17.07
2018-01-19T09:25:28.634Z,15.50
2018-01-19T09:27:56.077Z,12.47
2018-01-19T09:30:23.542Z,15.50
2018-01-19T09:32:51.835Z,14.50
2018-01-19T09:35:19.365Z,18.37
2018-01-19T09:37:47.581Z,13.20
2018-01-19T09:40:15.145Z,12.90
2018-01-19T09:42:42.690Z,12.63
2018-01-19T09:45:10.150Z,18.20
2018-01-19T09:47:37.596Z,12.50
2018-01-19T09:50:05.064Z,14.10
2018-01-19T09:52:32.516Z,11.37
2018-01-19T09:54:59.999Z,13.00
2018-01-19T09:57:27.469Z,11.90
2018-01-19T09:59:55.690Z,16.60
2018-01-19T10:02:23.133Z,12.53
2018-01-19T10:04:50.578Z,9.90
2018-01-19T10:07:18.022Z,13.47
2018-01-19T10:09:45.482Z,13.20
2018-01-19T10:12:12.942Z,19.63
2018-01-19T10:14:40.426Z,12.60
2018-01-19T10:17:08.645Z,9.67
2018-01-19T10:19:36.089Z,14.43
2018-01-19T10:22:03.547Z,7.60
2018-01-19T10:24:30.985Z,9.20
2018-01-19T10:26:58.429Z,9.70
2018-01-19T10:29:26.636Z,8.77
2018-01-19T10:31:54.085Z,10.30
2018-01-19T10:34:21.542Z,13.37
2018-01-19T10:36:49.005Z,11.43
2018-01-19T10:39:16.452Z,8.17
2018-01-19T10:41:43.917Z,10.20
2018-01-19T10:44:11.361Z,7.03
2018-01-19T10:46:38.814Z,6.83
2018-01-19T10:49:07.031Z,7.93
2018-01-19T10:51:34.482Z,6.73
2018-01-19T10:54:01.934Z,7.13
2018-01-19T10:56:29.401Z,6.60
2018-01-19T10:58:56.849Z,5.97
2018-01-19T11:01:24.323Z,6.47
2018-01-19T11:03:51.769Z,6.70
2018-01-19T11:06:19.242Z,5.90
2018-01-19T11:08:46.685Z,14.17
2018-01-19T11:11:14.137Z,7.50
2018-01-19T11:13:41.589Z,6.87
2018-01-19T11:16:09.055Z,5.97
2018-01-19T11:18:36.545Z,6.17
2018-01-19T11:21:03.992Z,5.73
2018-01-19T11:23:32.242Z,6.10
2018-01-19T11:25:59.689Z,7.90
2018-01-19T11:28:27.146Z,9.60
2018-01-19T11:30:54.601Z,5.57
2018-01-19T11:33:22.065Z,5.00
2018-01-19T11:35:49.513Z,6.37
2018-01-19T11:38:16.966Z,4.23
2018-01-19T11:40:45.173Z,6.10
2018-01-19T11:43:12.621Z,4.50
2018-01-19T11:45:40.181Z,4.60
2018-01-19T11:48:07.669Z,4.63
2018-01-19T11:50:35.256Z,5.40
2018-01-19T11:53:02.792Z,5.60
2018-01-19T11:55:30.358Z,4.90
2018-01-19T11:57:58.600Z,5.10
2018-01-19T12:00:26.053Z,7.53
2018-01-19T12:02:53.621Z,4.30
2018-01-19T12:05:21.077Z,4.53
2018-01-19T12:07:48.525Z,3.77
2018-01-19T12:10:16.041Z,5.60
2018-01-19T12:12:44.281Z,3.67
2018-01-19T12:15:11.799Z,3.30
2018-01-19T12:17:39.258Z,4.27
2018-01-19T12:20:09.553Z,3.57
2018-01-19T12:22:37.532Z,4.00
2018-01-19T12:25:05.046Z,4.37
2018-01-19T12:27:33.306Z,3.73
2018-01-19T12:30:00.832Z,4.70
2018-01-19T12:32:28.296Z,3.27
2018-01-19T12:34:55.819Z,3.90
2018-01-19T12:37:24.092Z,3.20
2018-01-19T12:39:51.711Z,3.87
2018-01-19T12:42:20.016Z,3.63
2018-01-19T12:44:47.549Z,5.73
2018-01-19T12:47:14.995Z,4.67
2018-01-19T12:49:43.221Z,4.90
2018-01-19T12:52:10.681Z,4.30
2018-01-19T12:54:38.916Z,2.77
2018-01-19T12:57:06.457Z,4.57
2018-01-19T12:59:34.011Z,3.10
2018-01-19T13:02:01.490Z,2.80
2018-01-19T13:04:28.945Z,3.47
2018-01-19T13:06:56.397Z,3.60
2018-01-19T13:09:23.869Z,2.50
2018-01-19T13:11:51.339Z,2.67
2018-01-19T13:14:18.779Z,3.17
2018-01-19T13:16:46.300Z,2.90
2018-01-19T13:19:14.549Z,2.70
2018-01-19T13:21:42.889Z,3.43
2018-01-19T13:24:10.366Z,2.53
2018-01-19T13:26:38.657Z,4.03
2018-01-19T13:29:06.948Z,3.20
2018-01-19T13:31:34.562Z,2.70
2018-01-19T13:34:02.018Z,4.77
2018-01-19T13:36:29.474Z,2.53
2018-01-19T13:38:57.020Z,4.97
2018-01-19T13:41:24.537Z,3.73
2018-01-19T13:43:52.060Z,3.23
2018-01-19T13:46:19.626Z,3.70
2018-01-19T13:48:47.890Z,4.67
2018-01-19T13:51:16.182Z,2.80
2018-01-19T13:53:43.900Z,3.80
2018-01-19T13:56:11.365Z,4.50
2018-01-19T13:58:38.819Z,2.70
2018-01-19T14:01:06.277Z,2.33
2018-01-19T14:03:34.496Z,5.60
2018-01-19T14:06:01.973Z,1.83
2018-01-19T14:08:30.224Z,3.93
2018-01-19T14:10:57.715Z,7.20
2018-01-19T14:13:25.960Z,3.70
2018-01-19T14:15:53.507Z,2.73
2018-01-19T14:18:21.028Z,2.70
2018-01-19T14:20:48.537Z,2.20
2018-01-19T14:23:16.798Z,2.70
2018-01-19T14:25:44.289Z,2.17
2018-01-19T14:28:11.772Z,2.97
2018-01-19T14:30:40.010Z,2.70
2018-01-19T14:33:07.489Z,2.57
2018-01-19T14:35:35.714Z,2.10
2018-01-19T14:38:03.446Z,2.97
2018-01-19T14:40:31.758Z,5.50
2018-01-19T14:42:59.224Z,3.47
2018-01-19T14:45:26.686Z,3.03
2018-01-19T14:47:54.969Z,2.60
2018-01-19T14:50:23.238Z,2.47
2018-01-19T14:52:50.772Z,2.50
2018-01-19T14:55:18.221Z,2.40
2018-01-19T14:57:45.713Z,2.30
2018-01-19T15:00:13.921Z,2.87
2018-01-19T15:02:42.160Z,2.70
2018-01-19T15:05:09.659Z,4.13
2018-01-19T15:07:37.105Z,2.20
2018-01-19T15:10:05.346Z,2.60
2018-01-19T15:12:32.813Z,2.30
2018-01-19T15:15:00.279Z,1.80
2018-01-19T15:17:27.748Z,2.43
2018-01-19T15:19:56.021Z,2.27
2018-01-19T15:22:24.270Z,2.17
2018-01-19T15:24:51.732Z,3.67
2018-01-19T15:27:19.184Z,1.93
2018-01-19T15:29:46.641Z,3.87
2018-01-19T15:32:14.115Z,2.83
2018-01-19T15:34:41.681Z,2.23
2018-01-19T15:37:09.127Z,4.30
2018-01-19T15:39:36.580Z,3.40
2018-01-19T15:42:04.034Z,2.50
2018-01-19T15:44:31.477Z,2.20
2018-01-19T15:46:58.935Z,4.03
2018-01-19T15:49:26.406Z,3.10
2018-01-19T15:51:53.854Z,2.30
2018-01-19T15:54:21.316Z,2.53
2018-01-19T15:56:48.775Z,4.50
2018-01-19T15:59:16.223Z,3.10
2018-01-19T16:01:43.684Z,4.07
2018-01-19T16:04:11.153Z,5.17
2018-01-19T16:06:38.612Z,6.47
2018-01-19T16:09:06.062Z,5.17
2018-01-19T16:11:33.520Z,4.63
2018-01-19T16:14:00.976Z,4.13
2018-01-19T16:16:28.451Z,5.77
2018-01-19T16:18:55.905Z,6.23
2018-01-19T16:21:23.370Z,5.23
2018-01-19T16:23:50.816Z,7.07
2018-01-19T16:26:19.065Z,6.70
2018-01-19T16:28:46.513Z,5.30
2018-01-19T16:31:13.973Z,6.33
2018-01-19T16:33:41.454Z,6.00
2018-01-19T16:36:08.913Z,5.70
2018-01-19T16:38:36.369Z,5.10
2018-01-19T16:41:03.852Z,5.90
2018-01-19T16:43:32.796Z,6.60
2018-01-19T16:46:00.276Z,8.67
2018-01-19T16:48:27.740Z,8.60
2018-01-19T16:50:55.189Z,6.70
2018-01-19T16:53:22.649Z,8.83
2018-01-19T16:55:50.861Z,8.13
2018-01-19T16:58:19.085Z,7.97
2018-01-19T17:00:46.534Z,7.33
2018-01-19T17:03:14.022Z,10.00
2018-01-19T17:05:41.470Z,8.73
2018-01-19T17:08:08.928Z,8.07
2018-01-19T17:10:36.397Z,10.40
2018-01-19T17:13:03.860Z,9.07
2018-01-19T17:15:32.081Z,9.07
2018-01-19T17:17:59.539Z,8.10
2018-01-19T17:20:26.992Z,8.50
2018-01-19T17:22:54.443Z,9.13
2018-01-19T17:25:21.888Z,7.67
2018-01-19T17:27:49.341Z,8.27
2018-01-19T17:30:17.558Z,5.90
2018-01-19T17:32:45.054Z,6.77
2018-01-19T17:35:12.504Z,10.10
2018-01-19T17:37:39.956Z,6.90
2018-01-19T17:40:07.409Z,9.03
2018-01-19T17:42:34.869Z,6.00
2018-01-19T17:45:02.333Z,5.00
2018-01-19T17:47:29.785Z,7.93
2018-01-19T17:49:57.246Z,7.40
2018-01-19T17:52:24.763Z,6.43
2018-01-19T17:54:52.210Z,5.57
2018-01-19T17:57:19.649Z,6.30
2018-01-19T17:59:47.108Z,5.77
2018-01-19T18:02:15.322Z,5.90
2018-01-19T18:04:42.781Z,4.90
2018-01-19T18:07:10.234Z,8.50
2018-01-19T18:09:37.689Z,4.93
2018-01-19T18:12:05.140Z,6.60
2018-01-19T18:14:33.413Z,6.63
2018-01-19T18:17:00.870Z,7.20
2018-01-19T18:19:28.338Z,5.60
2018-01-19T18:21:55.785Z,5.27
2018-01-19T18:24:23.255Z,7.23
2018-01-19T18:26:50.691Z,5.90
2018-01-19T18:29:18.902Z,5.50
2018-01-19T18:31:46.382Z,6.37
2018-01-19T18:34:13.839Z,5.60
2018-01-19T18:36:41.438Z,4.37
2018-01-19T18:39:09.660Z,5.43
2018-01-19T18:41:37.113Z,4.77
2018-01-19T18:44:04.587Z,5.03
2018-01-19T18:46:32.049Z,5.33
2018-01-19T18:48:59.538Z,4.43
2018-01-19T18:51:27.781Z,4.80
2018-01-19T18:53:55.251Z,4.40
2018-01-19T18:56:22.704Z,4.17
2018-01-19T18:58:50.929Z,5.00
2018-01-19T19:01:18.390Z,5.13
2018-01-19T19:03:45.854Z,5.77
2018-01-19T19:06:13.327Z,4.77
2018-01-19T19:08:40.835Z,6.93
2018-01-19T19:11:09.069Z,4.10
2018-01-19T19:13:36.522Z,5.27
2018-01-19T19:16:04.001Z,6.10
2018-01-19T19:18:31.464Z,4.03
2018-01-19T19:20:58.917Z,5.80
2018-01-19T19:23:26.372Z,4.30
2018-01-19T19:25:53.824Z,6.20
2018-01-19T19:28:21.289Z,4.30
2018-01-19T19:30:48.757Z,4.10
2018-01-19T19:33:16.981Z,6.20
2018-01-19T19:35:44.454Z,6.20
2018-01-19T19:38:11.922Z,4.50
2018-01-19T19:40:39.378Z,6.13
2018-01-19T19:43:06.837Z,5.00
2018-01-19T19:45:34.289Z,3.90
2018-01-19T19:48:01.746Z,4.97
2018-01-19T19:50:29.203Z,3.50
2018-01-19T19:52:56.663Z,4.73
2018-01-19T19:55:24.116Z,10.07
2018-01-19T19:57:51.730Z,5.70
2018-01-19T20:00:19.957Z,3.90
2018-01-19T20:02:47.421Z,5.17
2018-01-19T20:05:14.870Z,7.73
2018-01-19T20:07:42.326Z,3.70
2018-01-19T20:10:09.771Z,5.53
2018-01-19T20:12:37.245Z,5.07
2018-01-19T20:15:04.718Z,4.23
2018-01-19T20:17:32.165Z,4.40
2018-01-19T20:19:59.705Z,3.70
2018-01-19T20:22:27.192Z,5.50
2018-01-19T20:24:54.637Z,4.23
2018-01-19T20:27:22.107Z,4.33
2018-01-19T20:29:49.554Z,4.30
2018-01-19T20:32:17.030Z,4.87
2018-01-19T20:34:45.243Z,4.37
2018-01-19T20:37:12.739Z,3.93
2018-01-19T20:39:40.181Z,6.30
2018-01-19T20:42:07.654Z,3.53
2018-01-19T20:44:35.133Z,3.60
2018-01-19T20:47:03.351Z,4.93
2018-01-19T20:49:30.796Z,4.60
2018-01-19T20:51:58.241Z,4.10
2018-01-19T20:54:25.739Z,3.73
2018-01-19T20:56:53.237Z,5.00
2018-01-19T20:59:20.686Z,3.17
2018-01-19T21:01:48.154Z,4.37
2018-01-19T21:04:15.621Z,3.57
2018-01-19T21:06:43.849Z,4.73
2018-01-19T21:09:11.341Z,5.10
2018-01-19T21:11:38.837Z,4.80
2018-01-19T21:14:06.295Z,3.90
2018-01-19T21:16:33.752Z,3.37
2018-01-19T21:19:01.197Z,4.03
2018-01-19T21:21:28.675Z,3.53
2018-01-19T21:23:56.150Z,3.90
2018-01-19T21:26:23.629Z,3.20
2018-01-19T21:28:51.120Z,3.30
2018-01-19T21:31:19.339Z,3.10
2018-01-19T21:33:46.793Z,3.17
2018-01-19T21:36:14.255Z,5.60
2018-01-19T21:38:41.707Z,3.00
2018-01-19T21:41:09.220Z,3.47
2018-01-19T21:43:36.688Z,2.60
2018-01-19T21:46:04.915Z,6.80
2018-01-19T21:48:32.530Z,2.83
2018-01-19T21:51:00.018Z,3.20
2018-01-19T21:53:27.482Z,3.80
2018-01-19T21:55:54.948Z,2.67
2018-01-19T21:58:22.409Z,3.40
2018-01-19T22:00:49.914Z,2.53
2018-01-19T22:03:18.191Z,2.47
2018-01-19T22:05:45.649Z,2.60
2018-01-19T22:08:13.883Z,2.77
2018-01-19T22:10:41.374Z,3.30
2018-01-19T22:13:08.820Z,3.47
2018-01-19T22:15:36.331Z,2.67
2018-01-19T22:18:03.820Z,2.63
2018-01-19T22:20:31.334Z,2.73
2018-01-19T22:22:58.799Z,2.80
2018-01-19T22:25:26.291Z,2.90
2018-01-19T22:27:53.775Z,2.63
2018-01-19T22:30:21.232Z,2.80
2018-01-19T22:32:48.722Z,3.63
2018-01-19T22:35:16.179Z,3.03
2018-01-19T22:37:43.654Z,4.97
2018-01-19T22:40:11.120Z,3.40
2018-01-19T22:42:38.644Z,2.73
2018-01-19T22:45:06.088Z,3.27
2018-01-19T22:47:34.321Z,2.90
2018-01-19T22:50:01.838Z,2.90
2018-01-19T22:52:29.307Z,2.40
2018-01-19T22:54:56.753Z,2.40
2018-01-19T22:57:24.222Z,3.47
2018-01-19T22:59:51.704Z,3.23
2018-01-19T23:02:19.205Z,3.90
2018-01-19T23:04:47.437Z,3.63
2018-01-19T23:07:14.923Z,2.90
2018-01-19T23:09:42.365Z,3.33
2018-01-19T23:12:09.833Z,3.83
2018-01-19T23:14:37.277Z,4.83
2018-01-19T23:17:04.842Z,4.20
2018-01-19T23:19:32.296Z,4.07
2018-01-19T23:21:59.750Z,3.70
2018-01-19T23:24:27.979Z,3.87
2018-01-19T23:26:55.489Z,4.43
2018-01-19T23:29:22.957Z,3.60
2018-01-19T23:31:50.409Z,4.27
2018-01-19T23:34:17.866Z,7.03
2018-01-19T23:36:46.134Z,4.83
2018-01-19T23:39:13.585Z,5.30
2018-01-19T23:41:41.040Z,7.17
2018-01-19T23:44:08.576Z,5.70
2018-01-19T23:46:36.049Z,4.90
2018-01-19T23:49:03.524Z,4.10
2018-01-19T23:51:30.981Z,5.37
2018-01-19T23:53:58.444Z,4.53
2018-01-19T23:56:25.947Z,4.10
2018-01-19T23:58:53.432Z,4.20
